Time;durP1;ratioP1;P1;durP2;ratioP2;P2;SDS_P1;SDS_P2;PMS_P1;PMS_P2;Temp;Humidity;BMP_temperature;BMP_pressure;BME280_temperature;BME280_humidity;BME280_pressure;Samples;Min_cycle;Max_cycle;Signal;HPM_P1;HPM_P2
2021/01/15 00:00:17;;;;;;;54.50;20.50;;;;;;;-1.60;84.59;100393.37;120150;1150;22968;-64
2021/01/15 00:03:05;;;;;;;53.07;20.53;;;;;;;-1.59;85.48;100389.48;120023;1151;22926;-64
2021/01/15 00:05:38;;;;;;;51.80;18.43;;;;;;;-1.60;85.59;100404.33;120077;1150;22964;-62
2021/01/15 00:08:08;;;;;;;54.63;20.73;;;;;;;-1.61;85.44;100392.59;120141;1149;22955;-64
2021/01/15 00:10:39;;;;;;;56.53;21.05;;;;;;;-1.62;84.89;100399.25;120348;1149;22927;-63
2021/01/15 00:13:10;;;;;;;50.93;19.77;;;;;;;-1.59;85.28;100394.95;120135;1150;25986;-64
2021/01/15 00:15:40;;;;;;;56.83;21.33;;;;;;;-1.60;85.76;100398.85;120084;1151;23042;-64
2021/01/15 00:18:11;;;;;;;56.10;22.70;;;;;;;-1.59;85.49;100398.45;120113;1151;22958;-62
2021/01/15 00:20:41;;;;;;;59.07;21.90;;;;;;;-1.60;85.65;100401.59;120176;1150;22958;-63
2021/01/15 00:23:11;;;;;;;57.33;22.07;;;;;;;-1.59;86.03;100403.92;120058;1151;22897;-63
2021/01/15 00:25:41;;;;;;;59.40;23.00;;;;;;;-1.59;85.14;100403.92;120232;1149;23148;-63
2021/01/15 00:28:12;;;;;;;49.50;20.30;;;;;;;-1.59;85.29;100401.19;120210;1150;23069;-63
2021/01/15 00:30:42;;;;;;;59.20;23.47;;;;;;;-1.59;85.53;100398.45;120146;1150;22854;-63
2021/01/15 00:33:12;;;;;;;59.95;21.48;;;;;;;-1.59;85.35;100403.92;120155;1150;22866;-63
2021/01/15 00:35:43;;;;;;;56.20;22.60;;;;;;;-1.59;85.65;100397.69;120091;1149;23148;-63
2021/01/15 00:38:13;;;;;;;59.03;22.75;;;;;;;-1.60;85.68;100394.16;119998;1150;27781;-64
2021/01/15 00:40:43;;;;;;;55.80;23.40;;;;;;;-1.60;85.40;100391.42;120155;1150;22954;-62
2021/01/15 00:43:15;;;;;;;58.90;24.27;;;;;;;-1.60;85.70;100383.22;120306;1151;25947;-64
2021/01/15 00:45:46;;;;;;;61.50;26.60;;;;;;;-1.60;86.31;100394.16;120119;1150;22954;-63
2021/01/15 00:48:17;;;;;;;66.90;26.30;;;;;;;-1.60;85.92;100390.64;120021;1151;22983;-63
2021/01/15 00:50:47;;;;;;;62.23;24.32;;;;;;;-1.62;85.66;100388.30;120074;1150;23062;-64
2021/01/15 00:53:18;;;;;;;68.60;27.25;;;;;;;-1.62;86.51;100376.56;120177;1149;27515;-64
2021/01/15 00:55:51;;;;;;;58.52;23.35;;;;;;;-1.62;86.45;100365.62;120171;1150;22951;-63
2021/01/15 00:58:21;;;;;;;68.63;25.33;;;;;;;-1.61;86.32;100367.95;120171;1149;22937;-63
2021/01/15 01:00:52;;;;;;;69.27;30.02;;;;;;;-1.60;86.03;100377.73;120120;1151;23373;-63
2021/01/15 01:03:22;;;;;;;73.23;29.77;;;;;;;-1.57;85.82;100382.41;120082;1151;22933;-63
2021/01/15 01:05:52;;;;;;;69.07;29.37;;;;;;;-1.56;85.84;100397.68;120145;1149;29043;-63
2021/01/15 01:08:22;;;;;;;77.22;30.20;;;;;;;-1.57;86.07;100398.84;120119;1151;22939;-64
2021/01/15 01:10:52;;;;;;;70.22;29.63;;;;;;;-1.56;86.02;100386.73;120055;1150;22926;-64
2021/01/15 01:13:22;;;;;;;71.42;30.17;;;;;;;-1.57;86.62;100392.60;120158;1150;23026;-62
2021/01/15 01:15:53;;;;;;;74.92;32.73;;;;;;;-1.57;86.12;100387.89;120173;1149;23473;-63
2021/01/15 01:18:23;;;;;;;74.63;31.37;;;;;;;-1.58;85.94;100389.08;120139;1150;24611;-64
2021/01/15 01:20:53;;;;;;;74.70;31.97;;;;;;;-1.57;86.31;100392.60;120153;1150;22951;-62
2021/01/15 01:23:23;;;;;;;75.10;30.82;;;;;;;-1.59;86.51;100384.77;120269;1150;23035;-64
2021/01/15 01:25:53;;;;;;;79.73;31.57;;;;;;;-1.61;86.78;100386.36;120015;1150;24609;-62
2021/01/15 01:28:23;;;;;;;83.10;33.20;;;;;;;-1.63;86.92;100378.52;120031;1150;23125;-63
2021/01/15 01:30:53;;;;;;;83.80;35.60;;;;;;;-1.65;86.25;100381.66;120267;1150;22958;-63
2021/01/15 01:33:23;;;;;;;81.25;34.55;;;;;;;-1.65;86.29;100384.39;120157;1150;22964;-63
2021/01/15 01:35:54;;;;;;;80.42;33.92;;;;;;;-1.65;87.05;100389.86;120267;1149;22958;-64
2021/01/15 01:38:24;;;;;;;91.73;39.80;;;;;;;-1.66;86.60;100385.58;120170;1150;23023;-62
2021/01/15 01:40:54;;;;;;;91.00;38.40;;;;;;;-1.63;86.18;100385.97;120030;1151;22906;-63
2021/01/15 01:43:24;;;;;;;89.03;39.03;;;;;;;-1.61;86.87;100383.62;120199;1151;23051;-64
2021/01/15 01:45:57;;;;;;;98.22;38.85;;;;;;;-1.59;86.39;100392.22;120031;1150;22967;-63
2021/01/15 01:48:28;;;;;;;77.87;34.93;;;;;;;-1.58;86.48;100388.29;119998;1150;22967;-63
2021/01/15 01:50:58;;;;;;;81.80;33.03;;;;;;;-1.56;86.60;100380.47;120132;1149;26107;-63
2021/01/15 01:53:31;;;;;;;74.93;28.00;;;;;;;-1.55;87.19;100388.27;120309;1150;22932;-64
2021/01/15 01:56:04;;;;;;;73.97;30.47;;;;;;;-1.53;86.65;100399.61;120118;1150;27261;-64
2021/01/15 01:58:35;;;;;;;61.37;25.40;;;;;;;-1.52;86.46;100398.45;120236;1150;26233;-63
2021/01/15 02:01:07;;;;;;;57.30;23.33;;;;;;;-1.51;87.06;100402.73;120120;1151;23110;-63
2021/01/15 02:03:37;;;;;;;51.50;20.60;;;;;;;-1.49;86.81;100405.86;120055;1151;23043;-62
2021/01/15 02:06:12;;;;;;;60.05;23.10;;;;;;;-1.48;87.48;100396.48;120057;1151;27086;-64
2021/01/15 02:08:42;;;;;;;62.27;25.93;;;;;;;-1.46;87.60;100388.66;120129;1150;22985;-63
2021/01/15 02:11:20;;;;;;;67.35;25.57;;;;;;;-1.45;87.07;100379.28;120094;1149;22875;-63
2021/01/15 02:13:59;;;;;;;63.50;24.53;;;;;;;-1.42;87.10;100386.69;120159;1150;23381;-63
2021/01/15 02:16:31;;;;;;;58.30;21.67;;;;;;;-1.39;87.41;100396.08;120103;1150;24516;-63
2021/01/15 02:19:14;;;;;;;58.50;22.23;;;;;;;-1.38;87.12;100390.20;120122;1150;26415;-63
2021/01/15 02:22:20;;;;;;;56.80;21.40;;;;;;;-1.36;87.33;100395.28;120171;1151;23093;-63
2021/01/15 02:25:21;;;;;;;49.90;20.67;;;;;;;-1.34;87.18;100401.14;120251;1149;22936;-62
2021/01/15 02:28:40;;;;;;;52.73;22.13;;;;;;;-1.34;86.74;100404.67;120308;1151;22902;-62
2021/01/15 02:31:32;;;;;;;49.90;18.50;;;;;;;-1.34;86.83;100410.14;119636;1151;22973;-64
2021/01/15 02:34:17;;;;;;;49.10;21.17;;;;;;;-1.34;86.70;100401.93;119621;1151;22918;-64
2021/01/15 02:36:59;;;;;;;53.70;20.25;;;;;;;-1.32;86.86;100410.53;119680;1151;23028;-64
2021/01/15 02:39:42;;;;;;;51.70;20.60;;;;;;;-1.32;87.76;100405.05;119727;1151;22942;-63
2021/01/15 02:42:14;;;;;;;49.37;20.17;;;;;;;-1.33;87.01;100397.23;119930;1151;22974;-63
2021/01/15 02:44:49;;;;;;;51.07;20.00;;;;;;;-1.32;86.98;100404.27;119846;1151;23106;-63
2021/01/15 02:47:24;;;;;;;52.65;20.45;;;;;;;-1.31;87.28;100414.06;119796;1151;23038;-63
2021/01/15 02:49:56;;;;;;;56.60;20.77;;;;;;;-1.32;87.81;100407.80;119984;1151;23039;-63
2021/01/15 02:52:26;;;;;;;46.13;17.33;;;;;;;-1.31;87.59;100408.58;119780;1151;27147;-63
2021/01/15 02:54:56;;;;;;;53.48;19.82;;;;;;;-1.32;86.96;100416.01;120018;1151;22950;-63
2021/01/15 02:57:26;;;;;;;55.88;20.40;;;;;;;-1.31;87.98;100417.59;119585;1151;22938;-63
2021/01/15 02:59:56;;;;;;;56.30;21.82;;;;;;;-1.31;87.13;100411.32;119612;1151;23001;-63
2021/01/15 03:02:38;;;;;;;50.85;19.92;;;;;;;-1.30;87.25;100418.34;120443;1111;23001;-63
2021/01/15 03:05:16;;;;;;;42.60;15.75;;;;;;;-1.30;87.37;100418.34;120212;1150;23615;-63
2021/01/15 03:07:47;;;;;;;47.47;18.97;;;;;;;-1.31;88.34;100417.59;121345;1150;27668;-63
2021/01/15 03:10:20;;;;;;;52.13;19.03;;;;;;;-1.31;87.74;100422.27;121334;1150;27247;-63
2021/01/15 03:12:52;;;;;;;45.93;17.73;;;;;;;-1.30;87.77;100421.08;120095;1150;23054;-63
2021/01/15 03:15:24;;;;;;;48.80;19.03;;;;;;;-1.30;87.81;100430.09;120117;1150;22944;-65
2021/01/15 03:17:55;;;;;;;51.37;19.37;;;;;;;-1.29;87.97;100417.97;120099;1149;27246;-65
2021/01/15 03:20:26;;;;;;;47.00;18.20;;;;;;;-1.29;87.78;100419.92;120149;1150;22962;-63
2021/01/15 03:22:56;;;;;;;47.97;18.97;;;;;;;-1.29;88.19;100423.45;120180;1149;22934;-63
2021/01/15 03:25:28;;;;;;;40.83;15.73;;;;;;;-1.29;87.64;100420.71;119967;1149;23055;-64
2021/01/15 03:27:59;;;;;;;51.63;19.77;;;;;;;-1.28;88.07;100433.22;120591;1150;26012;-63
2021/01/15 03:30:28;;;;;;;;;;;;;;;-1.29;88.03;100426.19;120243;1149;26818;-64
2021/01/15 03:33:00;;;;;;;47.00;17.70;;;;;;;-1.28;88.29;100435.19;120014;1150;21566;-64
2021/01/15 03:35:31;;;;;;;46.25;19.05;;;;;;;-1.29;87.94;100426.19;120023;1150;22940;-63
2021/01/15 03:38:03;;;;;;;51.17;19.87;;;;;;;-1.28;87.56;100432.45;120059;1150;22926;-64
2021/01/15 03:40:35;;;;;;;54.90;22.70;;;;;;;-1.27;87.64;100429.31;120139;1149;27862;-63
2021/01/15 03:43:11;;;;;;;54.85;23.75;;;;;;;-1.25;87.65;100426.17;119852;1149;22887;-63
2021/01/15 03:45:42;;;;;;;60.17;28.60;;;;;;;-1.23;88.20;100429.30;120343;1149;23129;-62
2021/01/15 03:48:14;;;;;;;46.53;21.07;;;;;;;-1.21;87.66;100424.20;120066;1150;22941;-63
2021/01/15 03:50:44;;;;;;;51.20;20.37;;;;;;;-1.18;88.27;100426.16;124302;1148;22685;-64
2021/01/15 03:53:15;;;;;;;40.90;16.25;;;;;;;-1.17;88.00;100433.98;120872;1149;27713;-63
2021/01/15 03:55:45;;;;;;;44.00;17.45;;;;;;;-1.17;88.20;100431.24;120122;1149;25860;-63
2021/01/15 03:58:15;;;;;;;48.08;18.37;;;;;;;-1.12;87.83;100433.56;119993;1151;22958;-63
2021/01/15 04:00:46;;;;;;;49.73;18.53;;;;;;;-1.11;87.36;100429.66;120162;1151;22968;-63
2021/01/15 04:03:16;;;;;;;52.57;19.97;;;;;;;-1.08;88.12;100423.40;120098;1151;23395;-63
2021/01/15 04:05:46;;;;;;;49.15;20.17;;;;;;;-1.06;87.28;100421.05;120028;1150;26395;-65
2021/01/15 04:08:16;;;;;;;48.50;19.00;;;;;;;-1.04;87.67;100418.69;120011;1150;24684;-64
2021/01/15 04:10:46;;;;;;;48.25;19.17;;;;;;;-1.02;87.99;100418.28;119967;1149;22917;-63
2021/01/15 04:13:16;;;;;;;48.17;19.30;;;;;;;-0.99;87.69;100422.95;120030;1150;22870;-63
2021/01/15 04:15:46;;;;;;;55.28;21.52;;;;;;;-0.98;87.28;100430.02;119988;1150;23094;-63
2021/01/15 04:18:16;;;;;;;56.85;23.20;;;;;;;-0.97;87.44;100429.61;120000;1150;27251;-63
2021/01/15 04:20:46;;;;;;;50.95;20.43;;;;;;;-0.97;87.39;100423.34;120030;1150;22932;-64
2021/01/15 04:23:16;;;;;;;50.90;22.33;;;;;;;-0.98;86.96;100417.10;119982;1150;22984;-63
2021/01/15 04:25:46;;;;;;;52.07;20.93;;;;;;;-0.97;87.19;100415.91;120002;1150;26107;-64
2021/01/15 04:28:16;;;;;;;53.98;22.35;;;;;;;-0.99;86.68;100415.53;119990;1150;22997;-65
2021/01/15 04:30:46;;;;;;;59.58;23.62;;;;;;;-0.99;87.58;100428.44;120225;1150;22958;-64
2021/01/15 04:33:16;;;;;;;57.67;21.75;;;;;;;-1.01;86.48;100434.32;120138;1149;22983;-64
2021/01/15 04:35:46;;;;;;;64.73;24.17;;;;;;;-1.02;86.84;100440.99;119987;1150;22926;-65
2021/01/15 04:38:16;;;;;;;61.35;22.93;;;;;;;-1.04;86.80;100429.65;120019;1149;22968;-64
2021/01/15 04:40:46;;;;;;;54.40;20.35;;;;;;;-1.03;87.07;100433.15;120168;1150;22926;-64
2021/01/15 04:43:20;;;;;;;48.23;17.90;;;;;;;-1.05;86.99;100436.30;120027;1149;26040;-65
2021/01/15 04:45:52;;;;;;;55.27;23.90;;;;;;;-1.05;87.37;100440.98;120014;1150;26062;-63
2021/01/15 04:48:24;;;;;;;57.07;23.37;;;;;;;-1.03;87.05;100438.62;120315;1149;26115;-63
2021/01/15 04:50:58;;;;;;;56.70;22.00;;;;;;;-1.05;86.52;100435.50;120145;1149;23365;-63
2021/01/15 04:53:35;;;;;;;55.80;22.53;;;;;;;-1.07;86.58;100444.13;120094;1150;24605;-65
2021/01/15 04:56:12;;;;;;;58.50;21.63;;;;;;;-1.07;86.77;100440.59;120056;1150;23387;-63
2021/01/15 04:58:48;;;;;;;55.60;20.80;;;;;;;-1.08;86.40;100442.58;120256;1150;22926;-65
2021/01/15 05:01:19;;;;;;;50.00;20.50;;;;;;;-1.08;86.38;100448.06;120194;1149;22951;-63
2021/01/15 05:03:52;;;;;;;58.43;20.97;;;;;;;-1.06;86.32;100448.45;120026;1150;22988;-63
2021/01/15 05:06:30;;;;;;;51.27;20.43;;;;;;;-1.05;86.71;100449.20;120168;1149;24681;-63
2021/01/15 05:09:03;;;;;;;52.00;20.10;;;;;;;-1.05;86.35;100452.73;120025;1151;23427;-63
2021/01/15 05:11:37;;;;;;;51.33;21.33;;;;;;;-1.04;86.03;100448.04;120137;1150;22954;-63
2021/01/15 05:14:09;;;;;;;49.53;19.70;;;;;;;-1.06;86.02;100445.70;120091;1150;22951;-63
2021/01/15 05:16:41;;;;;;;48.80;20.30;;;;;;;-1.09;86.57;100448.44;120048;1149;24352;-63
2021/01/15 05:19:12;;;;;;;50.27;20.30;;;;;;;-1.14;86.59;100454.33;120441;1149;23008;-64
2021/01/15 05:21:44;;;;;;;49.20;19.90;;;;;;;-1.14;85.94;100462.55;120100;1150;22930;-65
2021/01/15 05:24:14;;;;;;;49.65;21.25;;;;;;;-1.12;86.77;100463.70;120080;1149;23090;-64
2021/01/15 05:26:44;;;;;;;52.50;20.75;;;;;;;-1.08;85.99;100478.20;120232;1151;22927;-66
2021/01/15 05:29:15;;;;;;;54.40;21.83;;;;;;;-1.04;86.65;100475.44;120016;1150;26636;-63
2021/01/15 05:31:56;;;;;;;51.60;20.97;;;;;;;-1.01;86.09;100475.42;120027;1150;22936;-64
2021/01/15 05:34:27;;;;;;;58.97;24.23;;;;;;;-1.02;86.75;100476.62;120128;1150;23027;-65
2021/01/15 05:36:57;;;;;;;73.27;30.17;;;;;;;-1.02;86.15;100484.84;120232;1148;23509;-63
2021/01/15 05:39:28;;;;;;;82.00;32.00;;;;;;;-1.01;86.52;100474.63;120168;1150;26667;-64
2021/01/15 05:42:01;;;;;;;69.45;27.25;;;;;;;-1.03;86.51;100476.98;120184;1150;22922;-63
2021/01/15 05:44:33;;;;;;;59.23;24.63;;;;;;;-1.06;85.77;100481.33;120038;1150;23357;-63
2021/01/15 05:47:03;;;;;;;57.87;23.13;;;;;;;-1.04;86.07;100476.23;120075;1150;22910;-65
2021/01/15 05:49:33;;;;;;;57.73;23.85;;;;;;;-1.02;85.85;100484.05;120029;1150;26395;-64
2021/01/15 05:52:10;;;;;;;59.73;23.77;;;;;;;-1.06;85.76;100488.75;120076;1150;22926;-63
2021/01/15 05:54:41;;;;;;;58.23;24.43;;;;;;;-1.11;85.63;100478.97;120330;1149;23004;-64
2021/01/15 05:57:26;;;;;;;64.20;25.27;;;;;;;-1.13;85.64;100477.80;120192;1150;24737;-63
2021/01/15 05:59:56;;;;;;;64.33;25.63;;;;;;;-1.11;86.22;100487.19;120049;1149;25961;-64
2021/01/15 06:02:27;;;;;;;54.07;22.90;;;;;;;-1.11;85.69;100486.41;120072;1150;27535;-64
2021/01/15 06:04:57;;;;;;;59.15;23.52;;;;;;;-1.11;86.48;100481.71;119940;1150;23094;-64
2021/01/15 06:07:28;;;;;;;57.45;24.95;;;;;;;-1.11;86.04;100486.41;119926;1149;22937;-66
2021/01/15 06:10:02;;;;;;;56.35;22.60;;;;;;;-1.11;85.76;100498.15;120124;1149;22944;-64
2021/01/15 06:12:42;;;;;;;57.10;23.30;;;;;;;-1.16;85.49;100484.84;121239;1149;23055;-64
2021/01/15 06:15:15;;;;;;;57.57;24.93;;;;;;;-1.19;86.36;100480.16;120093;1150;22933;-65
2021/01/15 06:17:50;;;;;;;59.13;23.23;;;;;;;-1.20;86.38;100478.59;120241;1149;23008;-63
2021/01/15 06:20:21;;;;;;;56.27;23.97;;;;;;;-1.19;85.57;100493.07;120321;1149;27050;-67
2021/01/15 06:22:54;;;;;;;55.20;23.53;;;;;;;-1.18;85.67;100505.61;121262;1150;25596;-65
2021/01/15 06:25:30;;;;;;;64.33;25.87;;;;;;;-1.19;85.71;100509.50;120210;1149;22926;-66
2021/01/15 06:28:02;;;;;;;79.50;33.53;;;;;;;-1.18;86.49;100516.56;120193;1150;22926;-66
2021/01/15 06:30:34;;;;;;;96.60;41.17;;;;;;;-1.15;86.24;100518.50;120168;1150;22937;-66
2021/01/15 06:33:10;;;;;;;105.57;45.30;;;;;;;-1.17;86.47;100521.64;120128;1150;22982;-63
2021/01/15 06:35:42;;;;;;;110.60;47.15;;;;;;;-1.16;85.98;100522.43;120072;1149;26396;-63
2021/01/15 06:38:15;;;;;;;90.07;36.50;;;;;;;-1.17;86.44;100516.16;120033;1150;23032;-64
2021/01/15 06:40:47;;;;;;;61.07;25.53;;;;;;;-1.17;85.62;100515.37;121252;1149;23059;-64
2021/01/15 06:43:24;;;;;;;66.13;27.50;;;;;;;-1.16;85.46;100527.91;120144;1150;22894;-63
2021/01/15 06:45:55;;;;;;;63.77;25.30;;;;;;;-1.16;86.18;100530.66;120094;1150;23161;-64
2021/01/15 06:48:28;;;;;;;68.47;27.07;;;;;;;-1.16;85.44;100527.91;120075;1150;22867;-64
2021/01/15 06:50:58;;;;;;;58.07;24.47;;;;;;;-1.15;85.77;100529.46;120046;1150;22962;-64
2021/01/15 06:53:30;;;;;;;61.43;23.97;;;;;;;-1.16;85.52;100538.87;120001;1149;26809;-66
2021/01/15 06:56:02;;;;;;;62.50;25.07;;;;;;;-1.19;85.07;100539.64;119920;1149;23100;-66
2021/01/15 06:58:39;;;;;;;72.03;27.87;;;;;;;-1.22;85.01;100538.46;120029;1150;23087;-64
2021/01/15 07:01:21;;;;;;;65.90;26.63;;;;;;;-1.18;85.78;100539.23;119973;1150;22951;-66
2021/01/15 07:04:25;;;;;;;68.25;27.40;;;;;;;-1.16;86.17;100542.37;120131;1150;23016;-64
2021/01/15 07:07:11;;;;;;;62.10;25.20;;;;;;;-1.11;85.95;100552.16;119609;1151;22949;-63
2021/01/15 07:09:43;;;;;;;75.00;34.93;;;;;;;-1.08;86.08;100543.95;119619;1151;22955;-66
2021/01/15 07:12:14;;;;;;;63.67;26.60;;;;;;;-1.05;85.16;100545.89;119653;1151;22940;-65
2021/01/15 07:14:50;;;;;;;75.90;29.03;;;;;;;-1.01;85.44;100543.14;119563;1151;22921;-64
2021/01/15 07:17:30;;;;;;;71.40;29.25;;;;;;;-1.01;85.54;100545.87;119667;1151;23040;-64
2021/01/15 07:20:06;;;;;;;72.45;27.48;;;;;;;-1.02;85.53;100542.37;119785;1151;27829;-63
2021/01/15 07:22:43;;;;;;;66.93;26.73;;;;;;;-1.02;85.11;100538.84;119740;1151;24756;-66
2021/01/15 07:25:14;;;;;;;71.93;28.53;;;;;;;-1.01;85.15;100543.14;119742;1151;22947;-64
2021/01/15 07:27:45;;;;;;;72.20;32.00;;;;;;;-0.98;85.38;100551.38;119857;1151;23115;-64
2021/01/15 07:30:21;;;;;;;83.47;36.97;;;;;;;-0.95;85.23;100538.82;119790;1151;26078;-66
2021/01/15 07:32:53;;;;;;;92.70;39.90;;;;;;;-0.95;85.64;100545.09;119729;1151;25397;-66
2021/01/15 07:35:25;;;;;;;309.47;124.30;;;;;;;-0.96;85.29;100553.71;120097;1151;22957;-66
2021/01/15 07:38:09;;;;;;;242.60;97.75;;;;;;;-0.95;84.54;100560.74;119724;1151;22922;-65
2021/01/15 07:40:40;;;;;;;102.17;43.57;;;;;;;-0.95;84.70;100558.00;119770;1151;23020;-64
2021/01/15 07:43:29;;;;;;;78.50;35.30;;;;;;;-0.94;85.29;100562.33;119725;1151;26804;-64
2021/01/15 07:46:00;;;;;;;126.73;47.93;;;;;;;-0.92;85.31;100557.23;120121;1150;22927;-64
2021/01/15 07:48:31;;;;;;;163.27;60.10;;;;;;;-0.90;85.16;100560.36;120403;1150;22950;-64
2021/01/15 07:51:12;;;;;;;144.13;52.38;;;;;;;-0.92;84.06;100560.76;119992;1150;27378;-63
2021/01/15 07:53:44;;;;;;;90.83;35.00;;;;;;;-0.94;84.30;100563.11;120022;1148;22985;-66
2021/01/15 07:56:25;;;;;;;67.93;30.07;;;;;;;-0.97;84.97;100555.66;120119;1149;22948;-66
2021/01/15 07:58:55;;;;;;;59.77;25.27;;;;;;;-0.94;84.38;100565.85;119967;1150;22926;-64
2021/01/15 08:01:25;;;;;;;119.42;46.53;;;;;;;-0.90;85.13;100560.36;120010;1150;22964;-66
2021/01/15 08:03:57;;;;;;;124.45;52.88;;;;;;;-0.90;84.89;100566.63;120011;1150;23074;-66
2021/01/15 08:06:28;;;;;;;143.90;58.00;;;;;;;-0.88;85.11;100566.23;119973;1149;22964;-66
2021/01/15 08:09:03;;;;;;;127.30;52.13;;;;;;;-0.88;84.44;100571.70;120011;1150;24609;-66
2021/01/15 08:11:36;;;;;;;124.27;52.50;;;;;;;-0.86;84.18;100569.36;120291;1149;22951;-64
2021/01/15 08:14:14;;;;;;;120.33;50.30;;;;;;;-0.85;84.60;100563.47;119965;1149;26347;-66
2021/01/15 08:16:46;;;;;;;111.10;45.00;;;;;;;-0.84;84.52;100572.48;120132;1150;26379;-64
2021/01/15 08:19:17;;;;;;;95.53;45.37;;;;;;;-0.83;84.85;100569.34;119976;1149;22938;-64
2021/01/15 08:21:48;;;;;;;127.50;62.57;;;;;;;-0.80;84.08;100565.03;120878;1149;22948;-64
2021/01/15 08:24:18;;;;;;;133.05;67.67;;;;;;;-0.78;84.04;100568.16;120004;1150;23031;-64
2021/01/15 08:26:50;;;;;;;130.30;65.97;;;;;;;-0.77;84.03;100564.27;120059;1149;27391;-65
2021/01/15 08:29:21;;;;;;;136.10;68.97;;;;;;;-0.78;84.30;100559.94;124198;1148;22704;-64
2021/01/15 08:31:56;;;;;;;112.20;51.67;;;;;;;-0.77;84.18;100564.27;124390;1148;23314;-63
2021/01/15 08:34:32;;;;;;;104.40;44.23;;;;;;;-0.76;84.10;100571.30;122139;1149;22954;-63
2021/01/15 08:37:04;;;;;;;89.33;37.47;;;;;;;-0.74;83.80;100565.41;120123;1149;22933;-63
2021/01/15 08:39:48;;;;;;;75.75;33.15;;;;;;;-0.73;84.39;100570.52;120113;1149;27651;-64
2021/01/15 08:42:20;;;;;;;66.07;27.60;;;;;;;-0.73;84.01;100569.73;120025;1149;27393;-66
2021/01/15 08:44:51;;;;;;;59.45;27.45;;;;;;;-0.71;84.64;100579.13;120149;1149;22945;-64
2021/01/15 08:47:23;;;;;;;66.23;28.50;;;;;;;-0.73;83.78;100570.52;120193;1150;23090;-65
2021/01/15 08:49:56;;;;;;;81.30;35.95;;;;;;;-0.73;83.88;100572.47;120007;1149;23090;-64
2021/01/15 08:52:29;;;;;;;80.00;37.87;;;;;;;-0.71;83.88;100562.67;120060;1149;26395;-64
2021/01/15 08:55:01;;;;;;;81.40;36.75;;;;;;;-0.68;84.23;100581.06;120028;1149;22937;-66
2021/01/15 08:57:32;;;;;;;89.60;37.40;;;;;;;-0.68;84.70;100578.33;120053;1148;27254;-65
2021/01/15 09:00:08;;;;;;;;;;;;;;;-0.70;84.82;100572.45;120097;1150;22984;-63
2021/01/15 09:02:41;;;;;;;76.77;31.03;;;;;;;-0.71;84.90;100581.88;120120;1149;21571;-64
2021/01/15 09:05:13;;;;;;;66.85;27.90;;;;;;;-0.70;84.21;100582.66;119974;1150;24591;-64
2021/01/15 09:07:45;;;;;;;61.93;26.63;;;;;;;-0.72;84.20;100590.50;120054;1149;22910;-64
2021/01/15 09:10:18;;;;;;;61.67;25.60;;;;;;;-0.72;84.80;100585.77;119967;1150;27213;-64
2021/01/15 09:12:49;;;;;;;65.13;27.87;;;;;;;-0.74;84.08;100582.64;120014;1149;23102;-64
2021/01/15 09:15:25;;;;;;;68.23;28.10;;;;;;;-0.72;84.87;100595.98;120205;1150;22950;-65
2021/01/15 09:17:56;;;;;;;75.60;32.43;;;;;;;-0.72;84.85;100588.52;119896;1150;24640;-64
2021/01/15 09:20:27;;;;;;;81.13;36.50;;;;;;;-0.71;85.15;100592.05;120368;1148;27554;-65
2021/01/15 09:22:58;;;;;;;82.37;35.90;;;;;;;-0.70;84.77;100599.87;120671;1149;24738;-66
2021/01/15 09:25:28;;;;;;;85.27;35.80;;;;;;;-0.69;84.54;100593.22;120702;1150;27393;-64
2021/01/15 09:27:59;;;;;;;85.35;38.95;;;;;;;-0.68;84.56;100597.52;119968;1150;23094;-64
2021/01/15 09:30:29;;;;;;;91.97;41.80;;;;;;;-0.71;84.47;100601.06;120058;1150;22958;-65
2021/01/15 09:32:59;;;;;;;76.72;32.00;;;;;;;-0.73;84.39;100599.88;120051;1150;23100;-64
2021/01/15 09:35:29;;;;;;;62.87;28.40;;;;;;;-0.79;84.65;100595.98;120501;1150;24591;-64
2021/01/15 09:38:00;;;;;;;64.95;29.67;;;;;;;-0.84;84.17;100589.72;120310;1150;22954;-64
2021/01/15 09:40:29;;;;;;;;;;;;;;;-0.83;85.02;100594.02;120249;1148;22929;-64
2021/01/15 09:43:01;;;;;;;68.30;28.67;;;;;;;-0.84;85.04;100595.20;119753;1149;21628;-65
2021/01/15 09:45:31;;;;;;;63.50;27.47;;;;;;;-0.88;84.00;100597.16;120522;1149;23252;-65
2021/01/15 09:48:01;;;;;;;58.87;22.90;;;;;;;-0.90;84.11;100598.73;120031;1148;26082;-65
2021/01/15 09:50:31;;;;;;;59.55;24.65;;;;;;;-0.96;84.00;100597.56;119979;1151;22947;-64
2021/01/15 09:53:01;;;;;;;54.27;23.95;;;;;;;-0.97;84.28;100599.52;120692;1149;22934;-66
2021/01/15 09:55:31;;;;;;;56.60;23.73;;;;;;;-0.96;84.87;100594.81;120549;1150;23090;-64
2021/01/15 09:58:02;;;;;;;52.13;20.72;;;;;;;-0.96;85.00;100592.87;119981;1150;23058;-65
2021/01/15 10:00:32;;;;;;;53.78;21.95;;;;;;;-0.95;84.32;100599.90;119950;1150;22903;-64
2021/01/15 10:03:02;;;;;;;52.50;22.35;;;;;;;-0.97;84.72;100604.98;120239;1150;22926;-64
2021/01/15 10:05:33;;;;;;;60.70;25.80;;;;;;;-0.94;84.21;100598.73;120565;1150;27710;-64
2021/01/15 10:08:04;;;;;;;60.93;25.10;;;;;;;-0.92;84.69;100592.86;120068;1149;22930;-64
2021/01/15 10:10:34;;;;;;;58.67;22.57;;;;;;;-0.94;84.29;100589.73;120020;1150;25961;-64
2021/01/15 10:13:04;;;;;;;50.40;21.02;;;;;;;-0.95;84.63;100599.90;120033;1150;22982;-63
2021/01/15 10:15:36;;;;;;;41.83;17.90;;;;;;;-0.96;83.92;100598.34;120063;1151;23039;-66
2021/01/15 10:18:06;;;;;;;43.55;17.40;;;;;;;-0.99;84.77;100598.33;120244;1149;23498;-63
2021/01/15 10:20:36;;;;;;;47.48;17.92;;;;;;;-0.95;84.33;100590.89;120179;1150;22954;-64
2021/01/15 10:23:07;;;;;;;49.95;18.40;;;;;;;-0.94;84.91;100587.78;120195;1149;29926;-64
2021/01/15 10:25:37;;;;;;;54.25;20.15;;;;;;;-0.95;84.30;100597.16;120320;1149;26088;-64
2021/01/15 10:28:07;;;;;;;47.58;18.70;;;;;;;-0.97;83.91;100595.98;119893;1149;22954;-64
2021/01/15 10:30:37;;;;;;;48.00;17.80;;;;;;;-1.03;84.05;100592.86;119929;1149;22926;-64
2021/01/15 10:33:07;;;;;;;52.33;19.85;;;;;;;-1.05;84.36;100599.91;119973;1151;22961;-64
2021/01/15 10:35:38;;;;;;;48.15;19.23;;;;;;;-1.08;84.46;100596.02;119918;1150;27069;-64
2021/01/15 10:38:09;;;;;;;41.20;16.37;;;;;;;-1.09;83.81;100608.12;120155;1150;24650;-64
2021/01/15 10:40:39;;;;;;;40.50;15.63;;;;;;;-1.09;83.88;100610.08;120065;1150;22966;-64
2021/01/15 10:43:09;;;;;;;42.67;17.10;;;;;;;-1.10;84.65;100603.84;121475;1149;22894;-63
2021/01/15 10:45:40;;;;;;;40.57;15.77;;;;;;;-1.04;83.89;100602.27;120224;1149;22961;-64
2021/01/15 10:48:11;;;;;;;44.48;17.17;;;;;;;-1.05;84.40;100608.91;119920;1150;22944;-64
2021/01/15 10:50:41;;;;;;;42.87;16.67;;;;;;;-1.02;83.74;100610.09;120361;1149;23046;-64
2021/01/15 10:53:11;;;;;;;37.83;14.95;;;;;;;-1.04;84.38;100604.22;119924;1149;23027;-64
2021/01/15 10:55:41;;;;;;;43.50;18.75;;;;;;;-1.03;84.31;100603.03;119833;1149;22929;-64
2021/01/15 10:58:11;;;;;;;47.50;19.47;;;;;;;-1.02;84.46;100593.66;120935;1150;23011;-63
2021/01/15 11:00:41;;;;;;;45.12;18.80;;;;;;;-0.97;83.88;100593.23;119935;1150;23002;-66
2021/01/15 11:03:11;;;;;;;46.58;17.80;;;;;;;-0.94;84.51;100596.00;120072;1149;22943;-66
2021/01/15 11:05:42;;;;;;;39.25;15.50;;;;;;;-0.94;83.72;100601.48;120291;1149;22985;-64
2021/01/15 11:08:12;;;;;;;51.73;21.93;;;;;;;-0.93;84.43;100602.23;119972;1149;22920;-64
2021/01/15 11:10:41;;;;;;;;;;;;;;;-0.89;84.42;100590.11;120011;1149;22937;-66
2021/01/15 11:13:11;;;;;;;48.97;21.27;;;;;;;-0.85;84.26;100582.66;119949;1149;21577;-64
2021/01/15 11:15:42;;;;;;;41.08;17.95;;;;;;;-0.77;84.47;100577.17;120471;1149;26653;-66
2021/01/15 11:18:12;;;;;;;41.15;16.55;;;;;;;-0.72;84.01;100579.53;120174;1149;28399;-64
2021/01/15 11:20:45;;;;;;;40.85;15.10;;;;;;;-0.72;84.04;100580.30;120162;1150;22926;-64
2021/01/15 11:23:15;;;;;;;34.10;12.90;;;;;;;-0.71;83.51;100581.08;119820;1149;29392;-66
2021/01/15 11:25:45;;;;;;;34.18;13.20;;;;;;;-0.71;83.08;100581.08;120040;1150;23689;-67